Time;durP1;ratioP1;P1;durP2;ratioP2;P2;SDS_P1;SDS_P2;PMS_P1;PMS_P2;Temp;Humidity;BMP_temperature;BMP_pressure;BME280_temperature;BME280_humidity;BME280_pressure;Samples;Min_cycle;Max_cycle;Signal;HPM_P1;HPM_P2
2022/09/21 00:01:44;;;;;;;;;;;;;;;22.13;46.02;102610.75;5023953;28;19924;-75
2022/09/21 00:04:09;;;;;;;;;;;;;;;22.12;46.18;102609.00;5057390;28;20300;-76
2022/09/21 00:06:36;;;;;;;;;;;;;;;22.11;46.16;102610.00;5026978;28;20002;-76
2022/09/21 00:09:03;;;;;;;;;;;;;;;22.09;46.37;102599.28;5060844;28;19924;-76
2022/09/21 00:11:29;;;;;;;;;;;;;;;22.08;45.97;102605.66;5044581;28;19932;-75
2022/09/21 00:13:58;;;;;;;;;;;;;;;22.07;46.44;102603.03;5045687;28;19920;-75
2022/09/21 00:16:24;;;;;;;;;;;;;;;22.05;46.74;102611.25;5046086;28;19950;-75
2022/09/21 00:18:49;;;;;;;;;;;;;;;22.04;46.32;102608.66;5046540;28;19942;-75
2022/09/21 00:21:15;;;;;;;;;;;;;;;22.00;46.37;102604.44;5045868;28;19924;-75
2022/09/21 00:23:41;;;;;;;;;;;;;;;22.01;46.55;102600.75;5046403;28;20012;-75
2022/09/21 00:26:09;;;;;;;;;;;;;;;21.99;46.57;102597.31;5027105;28;20379;-75
2022/09/21 00:28:34;;;;;;;;;;;;;;;21.99;46.64;102603.56;5020502;28;19920;-75
2022/09/21 00:31:04;;;;;;;;;;;;;;;21.98;46.72;102606.34;5026978;28;19978;-75
2022/09/21 00:33:29;;;;;;;;;;;;;;;21.96;46.67;102606.47;5046505;28;19920;-75
2022/09/21 00:35:54;;;;;;;;;;;;;;;21.96;46.45;102608.28;5044582;28;20421;-75
2022/09/21 00:38:20;;;;;;;;;;;;;;;21.93;46.66;102602.13;5046030;28;19924;-76
2022/09/21 00:40:45;;;;;;;;;;;;;;;21.91;46.65;102601.34;5045200;28;19921;-75
2022/09/21 00:43:14;;;;;;;;;;;;;;;21.89;46.93;102595.22;5046698;28;19932;-76
2022/09/21 00:45:40;;;;;;;;;;;;;;;21.88;47.04;102604.25;5044404;28;19916;-75
2022/09/21 00:48:06;;;;;;;;;;;;;;;21.87;47.16;102604.38;5044464;28;19916;-75
2022/09/21 00:50:32;;;;;;;;;;;;;;;21.84;46.97;102602.75;5058478;28;20653;-75
2022/09/21 00:52:57;;;;;;;;;;;;;;;21.82;47.02;102598.41;5044964;28;21441;-75
2022/09/21 00:55:36;;;;;;;;;;;;;;;21.81;47.08;102599.38;5045643;28;20342;-75
2022/09/21 00:58:14;;;;;;;;;;;;;;;21.80;47.27;102603.03;5045021;28;19956;-75
2022/09/21 01:00:39;;;;;;;;;;;;;;;21.79;47.00;102595.91;5044991;28;19923;-75
2022/09/21 01:03:05;;;;;;;;;;;;;;;21.77;47.31;102593.31;5044187;28;19956;-75
2022/09/21 01:05:30;;;;;;;;;;;;;;;21.76;47.04;102596.97;5045738;28;19920;-75
2022/09/21 01:07:58;;;;;;;;;;;;;;;21.74;47.46;102596.19;5043493;28;20205;-75
2022/09/21 01:10:26;;;;;;;;;;;;;;;21.73;47.36;102592.63;5045939;28;19920;-75
2022/09/21 01:13:02;;;;;;;;;;;;;;;21.73;47.27;102591.78;5040052;28;19930;-75
2022/09/21 01:15:43;;;;;;;;;;;;;;;21.74;47.20;102588.09;5033798;28;20025;-75
2022/09/21 01:18:12;;;;;;;;;;;;;;;21.73;47.42;102591.78;5027447;28;20997;-78
2022/09/21 01:20:43;;;;;;;;;;;;;;;21.69;47.72;102588.41;5044978;28;19975;-76
2022/09/21 01:23:20;;;;;;;;;;;;;;;21.69;47.78;102599.19;5044817;28;20452;-75
2022/09/21 01:25:46;;;;;;;;;;;;;;;21.68;47.33;102597.47;5044429;28;19995;-76
2022/09/21 01:28:24;;;;;;;;;;;;;;;21.68;47.40;102604.69;5044891;28;20480;-76
2022/09/21 01:30:52;;;;;;;;;;;;;;;21.67;47.52;102600.25;5043194;28;20546;-76
2022/09/21 01:33:32;;;;;;;;;;;;;;;21.65;47.41;102594.09;5020713;28;20375;-76
2022/09/21 01:36:05;;;;;;;;;;;;;;;21.63;47.78;102601.44;5044519;28;20424;-76
2022/09/21 01:38:43;;;;;;;;;;;;;;;21.60;47.76;102600.66;5045074;28;19946;-76
2022/09/21 01:41:11;;;;;;;;;;;;;;;21.59;47.92;102590.81;5043548;28;19920;-76
2022/09/21 01:43:39;;;;;;;;;;;;;;;21.60;47.94;102589.88;5043656;28;19930;-75
2022/09/21 01:46:06;;;;;;;;;;;;;;;21.60;48.01;102584.47;5045506;28;19920;-76
2022/09/21 01:48:34;;;;;;;;;;;;;;;21.60;47.83;102589.00;5045762;28;20296;-76
2022/09/21 01:51:00;;;;;;;;;;;;;;;21.58;48.09;102588.22;5043683;28;19993;-76
2022/09/21 01:53:35;;;;;;;;;;;;;;;21.58;48.00;102591.78;5044479;28;19945;-76
2022/09/21 01:56:05;;;;;;;;;;;;;;;21.54;47.98;102592.91;5044712;28;19969;-75
2022/09/21 01:58:53;;;;;;;;;;;;;;;21.56;48.08;102599.13;5044135;28;20445;-75
2022/09/21 02:01:21;;;;;;;;;;;;;;;21.54;48.05;102602.84;5039328;28;20453;-77
2022/09/21 02:04:08;;;;;;;;;;;;;;;21.53;48.01;102599.25;5043558;28;19924;-76
2022/09/21 02:06:35;;;;;;;;;;;;;;;21.54;47.47;102601.00;5043472;28;20279;-76
2022/09/21 02:09:00;;;;;;;;;;;;;;;21.53;48.11;102593.03;5043445;28;20358;-76
2022/09/21 02:11:25;;;;;;;;;;;;;;;21.54;47.89;102592.06;5043265;28;19958;-76
2022/09/21 02:13:52;;;;;;;;;;;;;;;21.50;47.94;102591.38;5059119;28;19935;-76
2022/09/21 02:16:30;;;;;;;;;;;;;;;21.52;47.95;102589.47;5043300;28;19920;-77
2022/09/21 02:19:14;;;;;;;;;;;;;;;21.49;47.77;102596.88;5043001;28;20061;-76
2022/09/21 02:21:50;;;;;;;;;;;;;;;21.48;47.70;102595.16;5041717;28;19928;-77
2022/09/21 02:24:24;;;;;;;;;;;;;;;21.44;48.16;102598.03;5024718;28;19924;-77
2022/09/21 02:26:58;;;;;;;;;;;;;;;21.44;48.20;102598.03;5042287;28;19938;-76
2022/09/21 02:29:37;;;;;;;;;;;;;;;21.44;47.97;102602.56;5018594;28;20398;-75
2022/09/21 02:32:07;;;;;;;;;;;;;;;21.44;48.25;102605.25;5043509;28;20299;-74
2022/09/21 02:34:51;;;;;;;;;;;;;;;21.44;47.78;102603.44;5042405;28;19920;-77
2022/09/21 02:37:30;;;;;;;;;;;;;;;21.44;48.07;102599.84;5043394;28;20521;-76
2022/09/21 02:40:01;;;;;;;;;;;;;;;21.44;47.78;102600.75;5043609;28;19924;-75
2022/09/21 02:42:32;;;;;;;;;;;;;;;21.43;48.03;102600.81;5024695;28;19916;-75
2022/09/21 02:45:06;;;;;;;;;;;;;;;21.42;48.30;102594.56;5044530;28;19916;-78
2022/09/21 02:47:34;;;;;;;;;;;;;;;21.41;47.74;102600.91;5043270;28;19927;-76
2022/09/21 02:50:09;;;;;;;;;;;;;;;21.42;48.03;102594.56;5025493;28;19927;-76
2022/09/21 02:52:39;;;;;;;;;;;;;;;21.40;48.34;102592.94;5026330;28;20014;-76
2022/09/21 02:55:05;;;;;;;;;;;;;;;21.40;48.36;102588.41;5043989;28;19913;-76
2022/09/21 02:57:30;;;;;;;;;;;;;;;21.40;48.10;102596.47;5043944;28;19931;-75
2022/09/21 02:59:56;;;;;;;;;;;;;;;21.38;47.90;102593.03;5044862;28;19926;-75
2022/09/21 03:02:21;;;;;;;;;;;;;;;21.38;48.43;102594.84;5042298;28;19990;-75
2022/09/21 03:04:47;;;;;;;;;;;;;;;21.40;47.98;102596.47;5042890;28;19920;-75
2022/09/21 03:07:15;;;;;;;;;;;;;;;21.38;48.11;102593.03;5058336;28;19932;-75
2022/09/21 03:09:41;;;;;;;;;;;;;;;21.38;47.97;102601.13;5024908;28;19920;-76
2022/09/21 03:12:06;;;;;;;;;;;;;;;21.35;48.40;102601.28;5042618;28;19958;-75
2022/09/21 03:14:32;;;;;;;;;;;;;;;21.36;48.44;102592.25;5042533;28;19920;-76
2022/09/21 03:16:57;;;;;;;;;;;;;;;21.38;47.79;102605.63;5041851;28;19921;-76
2022/09/21 03:19:22;;;;;;;;;;;;;;;21.35;48.23;102595.06;5045346;28;20002;-76
2022/09/21 03:21:48;;;;;;;;;;;;;;;21.34;48.20;102604.94;5019155;28;20061;-76
2022/09/21 03:24:44;;;;;;;;;;;;;;;21.32;48.31;102604.19;5061186;28;20158;-77
2022/09/21 03:26:58;;;;;;;;;;;;;;;21.32;48.15;102600.63;5044951;28;19935;-76
2022/09/21 03:29:23;;;;;;;;;;;;;;;21.33;47.94;102605.06;5045204;28;19920;-76
2022/09/21 03:31:49;;;;;;;;;;;;;;;21.31;48.15;102607.84;5024841;28;20014;-76
2022/09/21 03:34:15;;;;;;;;;;;;;;;21.27;48.54;102607.16;5042857;28;19927;-76
2022/09/21 03:36:40;;;;;;;;;;;;;;;21.28;48.28;102608.06;5043125;28;19967;-76
2022/09/21 03:39:05;;;;;;;;;;;;;;;21.28;48.41;102603.50;5044894;28;20429;-76
2022/09/21 03:41:31;;;;;;;;;;;;;;;21.28;48.39;102608.91;5046823;28;19916;-77
2022/09/21 03:43:56;;;;;;;;;;;;;;;21.29;48.51;102609.75;5013430;28;19978;-76
2022/09/21 03:46:21;;;;;;;;;;;;;;;21.26;48.68;102608.13;5047202;28;19947;-75
2022/09/21 03:48:47;;;;;;;;;;;;;;;21.26;48.26;102612.66;5030335;28;20275;-76
2022/09/21 03:51:12;;;;;;;;;;;;;;;21.24;48.19;102610.06;5047890;28;19924;-77
2022/09/21 03:53:37;;;;;;;;;;;;;;;21.24;48.46;102607.38;5049102;28;19970;-76
2022/09/21 03:56:03;;;;;;;;;;;;;;;21.23;48.18;102608.31;5049539;28;19942;-76
2022/09/21 03:58:28;;;;;;;;;;;;;;;21.23;48.58;102607.47;5032718;28;20457;-77
2022/09/21 04:00:53;;;;;;;;;;;;;;;21.23;48.56;102611.03;5032197;28;19926;-77
2022/09/21 04:03:19;;;;;;;;;;;;;;;21.21;48.45;102612.94;5048568;28;20033;-77
2022/09/21 04:05:44;;;;;;;;;;;;;;;21.19;48.62;102612.19;5064200;28;19989;-77
2022/09/21 04:08:09;;;;;;;;;;;;;;;21.17;48.62;102608.69;5049911;28;20657;-77
2022/09/21 04:10:34;;;;;;;;;;;;;;;21.18;48.37;102606.91;5063055;28;20373;-84
2022/09/21 04:13:00;;;;;;;;;;;;;;;21.16;48.95;102601.56;5029629;28;20015;-74
2022/09/21 04:15:26;;;;;;;;;;;;;;;21.14;49.51;102608.91;5046904;28;20053;-72
2022/09/21 04:17:52;;;;;;;;;;;;;;;21.19;50.00;102605.91;5020706;28;20383;-74
2022/09/21 04:20:17;;;;;;;;;;;;;;;21.24;50.41;102603.78;5039214;28;20023;-72
2022/09/21 04:22:43;;;;;;;;;;;;;;;21.27;50.26;102606.31;5035380;28;19959;-72
2022/09/21 04:25:09;;;;;;;;;;;;;;;21.28;50.25;102606.22;5037462;28;20019;-73
2022/09/21 04:27:34;;;;;;;;;;;;;;;21.31;50.65;102602.47;5036814;28;20007;-72
2022/09/21 04:30:00;;;;;;;;;;;;;;;21.31;50.05;102602.47;5039468;28;20299;-73
2022/09/21 04:32:25;;;;;;;;;;;;;;;21.37;50.58;102599.38;5005091;28;20603;-72
2022/09/21 04:34:50;;;;;;;;;;;;;;;21.40;50.11;102599.19;5040174;28;19988;-72
2022/09/21 04:37:16;;;;;;;;;;;;;;;21.43;50.21;102601.69;5020944;28;19924;-72
2022/09/21 04:39:41;;;;;;;;;;;;;;;21.44;50.19;102605.25;5039644;28;19927;-72
2022/09/21 04:42:07;;;;;;;;;;;;;;;21.48;50.22;102609.47;5038212;28;19967;-71
2022/09/21 04:44:32;;;;;;;;;;;;;;;21.50;49.57;102604.88;5039546;28;20032;-71
2022/09/21 04:46:58;;;;;;;;;;;;;;;21.53;49.47;102607.34;5038685;28;19930;-74
2022/09/21 04:49:24;;;;;;;;;;;;;;;21.53;49.44;102612.75;5038364;28;19920;-74
2022/09/21 04:51:49;;;;;;;;;;;;;;;21.50;49.75;102604.88;5035287;28;20280;-73
2022/09/21 04:54:14;;;;;;;;;;;;;;;21.51;49.92;102606.59;5039359;28;19924;-74
2022/09/21 04:56:39;;;;;;;;;;;;;;;21.53;49.34;102601.97;5038340;28;20021;-73
2022/09/21 04:59:05;;;;;;;;;;;;;;;21.52;49.48;102608.34;5038384;28;20014;-74
2022/09/21 05:01:30;;;;;;;;;;;;;;;21.56;49.38;102609.00;5039630;28;19920;-75
2022/09/21 05:04:00;;;;;;;;;;;;;;;21.54;49.72;102609.09;5046142;28;19938;-81
2022/09/21 05:06:26;;;;;;;;;;;;;;;21.56;49.56;102611.72;5038839;28;19974;-79
2022/09/21 05:11:35;;;;;;;;;;;;;;;21.57;48.91;102611.63;5042904;28;19981;-78
2022/09/21 05:14:00;;;;;;;;;;;;;;;21.58;48.85;102610.66;5040629;28;20050;-76
2022/09/21 05:16:25;;;;;;;;;;;;;;;21.59;49.05;102607.00;5041853;28;19959;-77
2022/09/21 05:18:53;;;;;;;;;;;;;;;21.60;48.85;102603.34;5041123;28;19927;-74
2022/09/21 05:21:20;;;;;;;;;;;;;;;21.55;49.25;102610.00;5003652;28;1098822;-80
2022/09/21 05:23:45;;;;;;;;;;;;;;;21.47;49.58;102613.16;5043059;28;20080;-75
2022/09/21 05:26:10;;;;;;;;;;;;;;;21.48;49.53;102608.63;5015889;28;20306;-76
2022/09/21 05:28:36;;;;;;;;;;;;;;;21.50;49.51;102610.25;5026310;28;20280;-76
2022/09/21 05:31:16;;;;;;;;;;;;;;;21.55;49.35;102610.00;5049200;28;19985;-76
2022/09/21 05:33:47;;;;;;;;;;;;;;;21.58;49.15;102613.34;5046556;28;20587;-77
2022/09/21 05:36:15;;;;;;;;;;;;;;;21.59;49.03;102615.09;5045553;28;20249;-77
2022/09/21 05:38:40;;;;;;;;;;;;;;;21.59;49.14;102612.38;5047709;28;20001;-77
2022/09/21 05:41:06;;;;;;;;;;;;;;;21.61;49.29;102612.28;5055943;28;19955;-76
2022/09/21 05:43:32;;;;;;;;;;;;;;;21.62;48.99;102622.09;5042001;28;19932;-76
2022/09/21 05:46:29;;;;;;;;;;;;;;;21.69;48.60;102619.88;5023763;28;20899;-77
2022/09/21 05:48:58;;;;;;;;;;;;;;;21.89;48.50;102626.69;4993656;28;20027;-78
2022/09/21 05:51:26;;;;;;;;;;;;;;;21.96;47.69;102628.03;5040415;28;20416;-75
2022/09/21 05:53:52;;;;;;;;;;;;;;;21.98;47.61;102630.63;5040678;28;20113;-79
2022/09/21 05:56:36;;;;;;;;;;;;;;;21.96;47.40;102625.34;5041374;28;19992;-77
2022/09/21 05:59:20;;;;;;;;;;;;;;;21.99;47.53;102624.28;5042688;28;19916;-76
2022/09/21 06:01:57;;;;;;;;;;;;;;;22.04;47.91;102624.84;5040209;28;20075;-75
2022/09/21 06:04:22;;;;;;;;;;;;;;;22.15;47.65;102634.91;5041918;28;20452;-75
2022/09/21 06:06:48;;;;;;;;;;;;;;;22.22;47.54;102634.41;5041326;28;19924;-78
2022/09/21 06:09:13;;;;;;;;;;;;;;;22.31;47.47;102634.78;5042639;28;20602;-75
2022/09/21 06:11:39;;;;;;;;;;;;;;;22.38;47.21;102642.41;5038488;28;19946;-77
2022/09/21 06:14:04;;;;;;;;;;;;;;;22.46;47.18;102635.63;5038575;28;20434;-77
2022/09/21 06:16:39;;;;;;;;;;;;;;;22.52;47.17;102637.88;5040724;28;20584;-78
2022/09/21 06:19:04;;;;;;;;;;;;;;;22.58;47.04;102642.88;5039823;28;20534;-76
2022/09/21 06:21:30;;;;;;;;;;;;;;;22.63;46.91;102635.34;5038985;28;19935;-77
2022/09/21 06:23:55;;;;;;;;;;;;;;;22.67;46.92;102631.44;5039910;28;20038;-76
2022/09/21 06:26:20;;;;;;;;;;;;;;;22.68;46.80;102635.88;5036779;28;20529;-75
2022/09/21 06:28:45;;;;;;;;;;;;;;;22.68;46.90;102638.59;5039878;28;19916;-76
2022/09/21 06:31:10;;;;;;;;;;;;;;;22.67;46.84;102631.44;5039942;28;20244;-77
2022/09/21 06:33:36;;;;;;;;;;;;;;;22.65;46.87;102633.41;5039180;28;19927;-75
2022/09/21 06:36:02;;;;;;;;;;;;;;;22.66;46.93;102637.84;5038681;28;19920;-78
2022/09/21 06:38:28;;;;;;;;;;;;;;;22.66;46.83;102636.97;5038608;28;19916;-77
2022/09/21 06:40:54;;;;;;;;;;;;;;;22.65;46.94;102632.53;5040161;28;19920;-77
2022/09/21 06:43:19;;;;;;;;;;;;;;;22.64;46.89;102639.78;5023117;28;20833;-78
2022/09/21 06:45:55;;;;;;;;;;;;;;;22.61;46.84;102637.28;5021689;28;20544;-78
2022/09/21 06:48:20;;;;;;;;;;;;;;;22.59;46.81;102639.22;5040586;28;19920;-77
2022/09/21 06:50:45;;;;;;;;;;;;;;;22.56;47.06;102642.13;5004690;28;19947;-78
2022/09/21 06:53:12;;;;;;;;;;;;;;;22.49;47.11;102643.50;5025744;28;20005;-76
2022/09/21 06:55:38;;;;;;;;;;;;;;;22.42;47.26;102643.06;5049244;28;20048;-75
2022/09/21 06:58:04;;;;;;;;;;;;;;;22.36;47.42;102647.03;5039817;28;20359;-78
2022/09/21 07:00:29;;;;;;;;;;;;;;;22.31;47.42;102640.19;5038983;28;19923;-77
2022/09/21 07:02:55;;;;;;;;;;;;;;;22.27;47.69;102645.75;5003326;28;19928;-79
2022/09/21 07:05:20;;;;;;;;;;;;;;;22.25;47.75;102645.00;5038880;28;20017;-78
2022/09/21 07:07:45;;;;;;;;;;;;;;;22.26;47.93;102648.56;5020503;28;21188;-78
2022/09/21 07:10:11;;;;;;;;;;;;;;;22.23;47.53;102652.34;5039807;28;19963;-76
2022/09/21 07:12:36;;;;;;;;;;;;;;;22.23;47.61;102655.03;5044358;28;20399;-79
2022/09/21 07:15:02;;;;;;;;;;;;;;;22.23;47.78;102652.34;5046033;28;20614;-78
2022/09/21 07:17:31;;;;;;;;;;;;;;;22.21;47.52;102639.91;5018131;28;19920;-79
2022/09/21 07:19:57;;;;;;;;;;;;;;;22.21;47.45;102634.50;5046224;28;19928;-78
2022/09/21 07:22:22;;;;;;;;;;;;;;;22.20;47.69;102646.25;5047207;28;19928;-77
2022/09/21 07:24:47;;;;;;;;;;;;;;;22.17;47.48;102644.63;5044104;28;20017;-77
2022/09/21 07:27:12;;;;;;;;;;;;;;;22.17;47.61;102643.78;5042272;28;20365;-77
2022/09/21 07:29:38;;;;;;;;;;;;;;;22.16;47.56;102647.44;5021973;28;20628;-77
2022/09/21 07:32:04;;;;;;;;;;;;;;;22.16;47.41;102650.13;5039878;28;19928;-77
2022/09/21 07:34:33;;;;;;;;;;;;;;;22.14;47.52;102652.94;5038660;28;20069;-77
2022/09/21 07:36:58;;;;;;;;;;;;;;;22.15;47.60;102654.69;5039416;28;21737;-78
2022/09/21 07:39:23;;;;;;;;;;;;;;;22.13;47.51;102651.22;5003524;28;19928;-76
2022/09/21 07:41:49;;;;;;;;;;;;;;;22.13;47.65;102653.06;5037293;28;20655;-76
2022/09/21 07:44:14;;;;;;;;;;;;;;;22.11;47.67;102647.75;5035553;28;20121;-77
2022/09/21 07:46:39;;;;;;;;;;;;;;;22.09;47.48;102647.84;5051261;28;19924;-78
2022/09/21 07:49:05;;;;;;;;;;;;;;;22.12;47.82;102648.63;5036794;28;19920;-79
2022/09/21 07:51:30;;;;;;;;;;;;;;;22.12;47.52;102654.00;5037443;28;20388;-78
2022/09/21 07:53:56;;;;;;;;;;;;;;;22.13;47.65;102653.06;5039223;28;20055;-78
2022/09/21 07:56:21;;;;;;;;;;;;;;;22.12;47.77;102654.88;5037073;28;19928;-78
2022/09/21 07:59:04;;;;;;;;;;;;;;;22.12;47.60;102652.16;5038515;28;19920;-76
2022/09/21 08:01:30;;;;;;;;;;;;;;;22.12;47.47;102646.78;5039274;28;19970;-79
2022/09/21 08:03:56;;;;;;;;;;;;;;;22.11;47.67;102650.47;5036762;28;20046;-78
2022/09/21 08:06:23;;;;;;;;;;;;;;;22.11;47.65;102655.84;5037960;28;20035;-76
2022/09/21 08:08:49;;;;;;;;;;;;;;;22.12;47.88;102651.31;5034791;28;19924;-78
2022/09/21 08:11:15;;;;;;;;;;;;;;;22.07;47.97;102646.22;5038198;28;19917;-79
2022/09/21 08:13:40;;;;;;;;;;;;;;;22.07;47.88;102651.59;5038843;28;20506;-81
2022/09/21 08:16:06;;;;;;;;;;;;;;;22.05;47.82;102650.84;5040581;28;20137;-79
2022/09/21 08:18:35;;;;;;;;;;;;;;;22.07;47.62;102652.50;5020032;28;20065;-80
2022/09/21 08:21:00;;;;;;;;;;;;;;;22.12;47.95;102651.31;5038700;28;20421;-78
2022/09/21 08:23:27;;;;;;;;;;;;;;;22.20;48.00;102662.47;5035148;28;19928;-76
2022/09/21 08:25:57;;;;;;;;;;;;;;;22.20;47.81;102665.16;5036367;28;19920;-81
2022/09/21 08:28:22;;;;;;;;;;;;;;;22.19;47.85;102664.31;5042907;28;20267;-79
2022/09/21 08:30:47;;;;;;;;;;;;;;;22.20;47.59;102668.75;5045093;28;20241;-79
2022/09/21 08:33:13;;;;;;;;;;;;;;;22.21;47.69;102666.88;5028300;28;20161;-81
2022/09/21 08:35:38;;;;;;;;;;;;;;;22.21;47.79;102664.19;5040418;28;19958;-79
2022/09/21 08:38:03;;;;;;;;;;;;;;;22.22;47.97;102665.94;5039897;28;20005;-77
2022/09/21 08:40:29;;;;;;;;;;;;;;;22.24;48.00;102667.56;5040501;28;19926;-78
2022/09/21 08:43:09;;;;;;;;;;;;;;;22.24;47.78;102661.31;5018251;28;20299;-81
2022/09/21 08:45:38;;;;;;;;;;;;;;;22.25;48.03;102654.91;5041588;28;20458;-79
2022/09/21 08:48:07;;;;;;;;;;;;;;;22.27;48.02;102664.66;5042368;28;20088;-77
2022/09/21 08:50:32;;;;;;;;;;;;;;;22.29;48.09;102669.97;5024229;28;19920;-77
2022/09/21 08:53:06;;;;;;;;;;;;;;;22.29;47.85;102664.56;5040067;28;19954;-78
2022/09/21 08:55:32;;;;;;;;;;;;;;;22.36;47.84;102670.41;5049407;28;19916;-80
2022/09/21 08:57:59;;;;;;;;;;;;;;;22.41;47.88;102663.78;5023266;28;19927;-79
2022/09/21 09:00:24;;;;;;;;;;;;;;;22.46;47.85;102670.72;5040633;28;20350;-78
2022/09/21 09:02:55;;;;;;;;;;;;;;;22.45;47.55;102672.53;5023502;28;19928;-76
2022/09/21 09:05:21;;;;;;;;;;;;;;;22.46;47.53;102676.13;5039607;28;20391;-78
2022/09/21 09:08:06;;;;;;;;;;;;;;;22.46;47.81;102676.97;5041250;28;19993;-81
2022/09/21 09:10:40;;;;;;;;;;;;;;;22.47;47.61;102683.22;5045372;28;19946;-85
2022/09/21 09:13:24;;;;;;;;;;;;;;;22.50;47.34;102666.84;5041399;28;19924;-79
2022/09/21 09:16:04;;;;;;;;;;;;;;;22.54;47.39;102681.84;5039822;28;20025;-81
2022/09/21 09:18:32;;;;;;;;;;;;;;;22.58;47.20;102677.97;5040270;28;20195;-80
2022/09/21 09:21:01;;;;;;;;;;;;;;;22.62;47.21;102673.25;5042265;28;20372;-83
2022/09/21 09:23:29;;;;;;;;;;;;;;;22.65;47.18;102675.72;5048149;28;20008;-83
2022/09/21 09:26:01;;;;;;;;;;;;;;;22.68;47.06;102676.38;5023695;28;20481;-80
2022/09/21 09:28:35;;;;;;;;;;;;;;;22.72;47.02;102679.75;5050610;28;20455;-79
2022/09/21 09:31:09;;;;;;;;;;;;;;;22.73;46.96;102682.34;5045927;28;19920;-78
2022/09/21 09:33:42;;;;;;;;;;;;;;;22.75;46.85;102679.56;5043160;28;20375;-77
2022/09/21 09:36:09;;;;;;;;;;;;;;;22.78;46.94;102684.75;5041528;28;19920;-77
2022/09/21 09:38:49;;;;;;;;;;;;;;;22.81;46.67;102681.81;5039763;28;20299;-75
2022/09/21 09:41:23;;;;;;;;;;;;;;;22.84;46.70;102678.06;5040370;28;19920;-74
2022/09/21 09:43:58;;;;;;;;;;;;;;;22.86;46.74;102674.28;5023569;28;19924;-75
2022/09/21 09:46:44;;;;;;;;;;;;;;;22.87;46.88;102676.00;5042518;28;19978;-77
2022/09/21 09:49:27;;;;;;;;;;;;;;;22.91;46.59;102673.97;5040257;28;20578;-76
2022/09/21 09:51:53;;;;;;;;;;;;;;;22.94;46.54;102672.91;5039456;28;21231;-76
2022/09/21 09:54:21;;;;;;;;;;;;;;;22.95;46.82;102667.38;5022037;28;20386;-74
2022/09/21 09:56:46;;;;;;;;;;;;;;;22.96;46.59;102679.06;5039251;28;19920;-77
2022/09/21 09:59:38;;;;;;;;;;;;;;;22.97;46.39;102687.06;5016661;28;19927;-78
2022/09/21 10:02:17;;;;;;;;;;;;;;;22.99;46.60;102673.44;4990652;28;19943;-74
2022/09/21 10:05:05;;;;;;;;;;;;;;;23.02;46.46;102681.34;5040044;28;20423;-76
2022/09/21 10:07:38;;;;;;;;;;;;;;;23.03;46.65;102677.66;5020369;28;20011;-77
2022/09/21 10:10:22;;;;;;;;;;;;;;;23.06;46.39;102674.75;5037975;28;19927;-76
2022/09/21 10:12:48;;;;;;;;;;;;;;;23.08;46.17;102668.28;5038900;28;19916;-76
2022/09/21 10:15:15;;;;;;;;;;;;;;;23.07;46.56;102669.25;5036794;28;19966;-77
2022/09/21 10:17:41;;;;;;;;;;;;;;;23.08;46.46;102673.69;5039478;28;20007;-79
2022/09/21 10:20:07;;;;;;;;;;;;;;;23.06;46.48;102662.09;5012942;28;20395;-80
2022/09/21 10:22:32;;;;;;;;;;;;;;;23.07;46.34;102665.69;5016533;28;20023;-80
2022/09/21 10:25:00;;;;;;;;;;;;;;;23.07;46.26;102663.00;5039076;28;19928;-81
2022/09/21 10:27:32;;;;;;;;;;;;;;;23.07;46.23;102671.09;5040258;28;19920;-82
2022/09/21 10:29:57;;;;;;;;;;;;;;;23.07;46.29;102665.69;5038432;28;19970;-80
2022/09/21 10:32:24;;;;;;;;;;;;;;;23.07;46.39;102666.53;5040145;28;20751;-82
2022/09/21 10:35:02;;;;;;;;;;;;;;;23.07;46.22;102669.25;5039058;28;20005;-77
2022/09/21 10:37:36;;;;;;;;;;;;;;;23.10;46.59;102673.56;5040548;28;20706;-78
2022/09/21 10:40:02;;;;;;;;;;;;;;;23.12;46.45;102654.53;5036432;28;19926;-77
2022/09/21 10:42:30;;;;;;;;;;;;;;;23.13;46.36;102654.44;5013792;28;20054;-78
2022/09/21 10:45:16;;;;;;;;;;;;;;;23.16;46.25;102666.88;5038842;28;19934;-78
2022/09/21 10:47:51;;;;;;;;;;;;;;;23.17;46.24;102657.81;5024851;28;19912;-78
2022/09/21 10:50:22;;;;;;;;;;;;;;;23.19;46.19;102655.88;5038543;28;21332;-78
2022/09/21 10:52:48;;;;;;;;;;;;;;;23.20;46.25;102660.31;5038310;28;19920;-77
2022/09/21 10:55:18;;;;;;;;;;;;;;;23.20;45.89;102660.31;5038539;28;19921;-78
2022/09/21 10:57:44;;;;;;;;;;;;;;;23.20;45.89;102654.91;5038829;28;19931;-79
2022/09/21 11:00:24;;;;;;;;;;;;;;;23.21;46.05;102654.81;5038455;28;20425;-76
2022/09/21 11:02:50;;;;;;;;;;;;;;;23.21;45.87;102654.81;5038073;28;19917;-75
2022/09/21 11:05:18;;;;;;;;;;;;;;;23.23;46.10;102660.94;5018968;28;20382;-78
2022/09/21 11:07:49;;;;;;;;;;;;;;;23.24;45.66;102651.03;5038237;28;20450;-75
2022/09/21 11:10:20;;;;;;;;;;;;;;;23.25;46.02;102647.34;5039390;28;19920;-76
2022/09/21 11:12:51;;;;;;;;;;;;;;;23.27;45.73;102656.19;5020365;28;19926;-78
2022/09/21 11:15:19;;;;;;;;;;;;;;;23.28;45.74;102644.41;5037084;28;20429;-78
2022/09/21 11:17:51;;;;;;;;;;;;;;;23.29;45.47;102638.03;5039951;28;19920;-78
2022/09/21 11:20:25;;;;;;;;;;;;;;;23.30;45.55;102647.88;5038710;28;20558;-76
2022/09/21 11:22:56;;;;;;;;;;;;;;;23.33;45.58;102638.69;5040451;28;20437;-78
2022/09/21 11:25:30;;;;;;;;;;;;;;;23.34;45.55;102644.00;5038026;28;19927;-78
2022/09/21 11:28:12;;;;;;;;;;;;;;;23.35;45.88;102651.13;5014324;28;19920;-76
2022/09/21 11:30:55;;;;;;;;;;;;;;;23.35;45.31;102645.72;5022484;28;19943;-77
2022/09/21 11:33:32;;;;;;;;;;;;;;;23.37;45.13;102643.75;5019696;28;19920;-77
2022/09/21 11:36:01;;;;;;;;;;;;;;;23.37;44.88;102637.50;5039660;28;19916;-76
2022/09/21 11:38:38;;;;;;;;;;;;;;;23.37;45.21;102634.78;5037968;28;20019;-78
2022/09/21 11:41:06;;;;;;;;;;;;;;;23.36;45.18;102638.47;5039340;28;20271;-78
2022/09/21 11:43:50;;;;;;;;;;;;;;;23.36;44.82;102627.66;5039160;28;19983;-78
2022/09/21 11:46:25;;;;;;;;;;;;;;;23.34;44.82;102627.78;5038830;28;19970;-77
2022/09/21 11:48:56;;;;;;;;;;;;;;;23.34;45.00;102640.44;5019452;28;19920;-78
2022/09/21 11:51:42;;;;;;;;;;;;;;;23.32;44.87;102624.31;5038571;28;20359;-78
2022/09/21 11:54:07;;;;;;;;;;;;;;;23.30;44.53;102628.09;5012093;28;20594;-77
2022/09/21 11:56:42;;;;;;;;;;;;;;;23.29;44.53;102624.53;5039086;28;19921;-78
2022/09/21 11:59:28;;;;;;;;;;;;;;;23.29;44.73;102618.25;5039237;28;20659;-78
2022/09/21 12:02:08;;;;;;;;;;;;;;;23.30;44.66;102620.88;5043255;28;20443;-77
2022/09/21 12:04:39;;;;;;;;;;;;;;;23.31;44.74;102619.00;5042171;28;20471;-78
2022/09/21 12:07:05;;;;;;;;;;;;;;;23.30;44.39;102615.47;5021712;28;19920;-78
2022/09/21 12:09:36;;;;;;;;;;;;;;;23.30;44.34;102611.88;5041489;28;19916;-77
2022/09/21 12:12:08;;;;;;;;;;;;;;;23.28;44.32;102621.94;5041818;28;19920;-75
2022/09/21 12:14:56;;;;;;;;;;;;;;;23.28;44.55;102614.69;5041429;28;19963;-78
2022/09/21 12:17:39;;;;;;;;;;;;;;;23.25;44.45;102612.22;5041391;28;20448;-84
2022/09/21 12:20:14;;;;;;;;;;;;;;;23.25;44.67;102614.91;5056323;28;20284;-82
2022/09/21 12:22:41;;;;;;;;;;;;;;;23.23;44.27;102606.91;5042387;28;20446;-81
2022/09/21 12:25:22;;;;;;;;;;;;;;;23.24;44.25;102610.47;5015327;28;19962;-82
2022/09/21 12:27:50;;;;;;;;;;;;;;;23.22;44.29;102607.91;5022321;28;20186;-82
2022/09/21 12:30:17;;;;;;;;;;;;;;;23.21;44.59;102610.69;5041370;28;20439;-81
2022/09/21 12:32:48;;;;;;;;;;;;;;;23.21;44.26;102607.97;5040922;28;20664;-82
2022/09/21 12:35:16;;;;;;;;;;;;;;;23.19;44.21;102599.97;5041360;28;19920;-82
2022/09/21 12:37:51;;;;;;;;;;;;;;;23.17;44.26;102601.06;5041158;28;20028;-82
2022/09/21 12:40:26;;;;;;;;;;;;;;;23.18;44.22;102613.63;5018084;28;19920;-81
2022/09/21 12:43:03;;;;;;;;;;;;;;;23.16;44.06;102604.75;5040961;28;20559;-82
2022/09/21 12:45:31;;;;;;;;;;;;;;;23.16;44.06;102613.72;5040422;28;20094;-82
2022/09/21 12:48:15;;;;;;;;;;;;;;;23.16;44.48;102612.84;5040972;28;19920;-74
2022/09/21 12:50:47;;;;;;;;;;;;;;;23.20;44.74;102603.56;5048340;28;19982;-83